Time;durP1;ratioP1;P1;durP2;ratioP2;P2;SDS_P1;SDS_P2;PMS_P1;PMS_P2;Temp;Humidity;BMP_temperature;BMP_pressure;BME280_temperature;BME280_humidity;BME280_pressure;Samples;Min_cycle;Max_cycle;Signal;HPM_P1;HPM_P2
2023/05/23 00:01:06;;;;;;;;;35.00;31.75;;;;;16.96;79.53;100410.88;5079985;28;45378;-73
2023/05/23 00:03:31;;;;;;;;;30.25;28.00;;;;;17.03;78.74;100417.91;5079834;28;45501;-74
2023/05/23 00:05:57;;;;;;;;;31.50;30.00;;;;;17.03;79.21;100413.53;5079955;28;45212;-73
2023/05/23 00:08:23;;;;;;;;;30.75;30.00;;;;;17.00;80.05;100410.00;5080060;28;45511;-73
2023/05/23 00:10:49;;;;;;;;;33.00;29.50;;;;;17.00;80.03;100417.94;5079392;28;46024;-75
2023/05/23 00:13:15;;;;;;;;;28.75;26.75;;;;;17.06;79.84;100417.94;5079571;28;45540;-74
2023/05/23 00:15:41;;;;;;;;;26.00;26.00;;;;;16.98;79.55;100399.44;5079302;28;45275;-73
2023/05/23 00:18:13;;;;;;;;;29.75;27.75;;;;;17.13;79.63;100413.53;5080083;28;45430;-73
2023/05/23 00:20:42;;;;;;;;;29.50;26.00;;;;;17.13;79.53;100408.25;5079377;28;46411;-73
2023/05/23 00:23:08;;;;;;;;;30.50;28.75;;;;;17.13;79.99;100411.78;5079406;28;45500;-74
2023/05/23 00:25:35;;;;;;;;;28.00;26.75;;;;;17.15;79.53;100420.59;5079745;28;45375;-73
2023/05/23 00:28:01;;;;;;;;;37.00;30.00;;;;;17.13;79.67;100416.16;5079832;28;45496;-74
2023/05/23 00:30:31;;;;;;;;;37.25;31.50;;;;;17.13;79.32;100418.81;5079460;28;45544;-73
2023/05/23 00:32:57;;;;;;;;;34.75;32.00;;;;;17.13;79.51;100406.53;5079191;28;45509;-74
2023/05/23 00:35:23;;;;;;;;;31.75;29.75;;;;;17.12;79.25;100410.03;5079353;28;45382;-73
2023/05/23 00:37:50;;;;;;;;;30.25;27.25;;;;;17.15;79.55;100404.75;5079553;28;45386;-74
2023/05/23 00:40:19;;;;;;;;;30.00;28.00;;;;;17.16;78.73;100400.34;5079602;28;45612;-73
2023/05/23 00:42:45;;;;;;;;;26.00;25.75;;;;;17.17;78.78;100404.72;5079440;28;45660;-73
2023/05/23 00:45:11;;;;;;;;;27.25;26.00;;;;;17.01;78.85;100377.44;5079515;28;45500;-74
2023/05/23 00:47:38;;;;;;;;;29.00;26.00;;;;;17.20;78.79;100407.41;5079283;28;45612;-74
2023/05/23 00:50:07;;;;;;;;;25.00;24.75;;;;;17.16;78.85;100400.34;5079112;28;45450;-74
2023/05/23 00:52:33;;;;;;;;;28.75;26.75;;;;;17.22;79.06;100410.91;5079105;28;45409;-75
2023/05/23 00:54:59;;;;;;;;;30.75;28.50;;;;;17.27;79.01;100407.41;5079063;28;45422;-73
2023/05/23 00:57:25;;;;;;;;;35.00;31.50;;;;;17.00;78.99;100367.78;5079282;28;45264;-73
2023/05/23 00:59:51;;;;;;;;;33.75;30.25;;;;;17.24;78.97;100407.38;5078848;28;45411;-73
2023/05/23 01:02:16;;;;;;;;;24.00;21.00;;;;;17.23;78.97;100405.63;5079017;28;45314;-73
2023/05/23 01:04:43;;;;;;;;;36.75;31.75;;;;;17.23;79.14;100400.38;5078901;28;45387;-73
2023/05/23 01:07:09;;;;;;;;;29.00;29.00;;;;;17.21;78.67;100395.94;5079292;28;45514;-73
2023/05/23 01:09:35;;;;;;;;;34.75;30.75;;;;;17.10;79.66;100390.66;5078672;28;45424;-74
2023/05/23 01:12:39;;;;;;;;;36.25;32.25;;;;;17.06;80.04;100396.81;5078830;28;45349;-74
2023/05/23 01:15:07;;;;;;;;;33.25;29.00;;;;;17.07;79.71;100399.47;5079015;28;45575;-73
2023/05/23 01:17:41;;;;;;;;;27.00;26.50;;;;;17.08;79.38;100393.28;5079129;28;45410;-73
2023/05/23 01:20:20;;;;;;;;;36.50;32.00;;;;;17.08;79.97;100395.94;5078496;27;45536;-73
2023/05/23 01:23:04;;;;;;;;;34.50;30.00;;;;;17.10;79.53;100388.03;5078867;28;45426;-74
2023/05/23 01:25:45;;;;;;;;;29.25;28.75;;;;;17.10;78.90;100388.03;5078548;28;45508;-73
2023/05/23 01:28:16;;;;;;;;;35.75;30.00;;;;;17.11;78.88;100389.81;5078797;28;45223;-73
2023/05/23 01:30:44;;;;;;;;;29.50;28.00;;;;;17.11;78.31;100387.16;5078509;28;45422;-73
2023/05/23 01:33:13;;;;;;;;;33.50;30.25;;;;;16.89;78.47;100352.84;5078275;28;45253;-74
2023/05/23 01:35:39;;;;;;;;;30.00;29.00;;;;;17.12;78.45;100390.69;5078446;28;45462;-73
2023/05/23 01:38:04;;;;;;;;;34.00;31.25;;;;;17.12;78.14;100386.25;5078676;28;45298;-75
2023/05/23 01:40:31;;;;;;;;;29.25;28.75;;;;;17.11;77.79;100384.53;5078312;28;46182;-75
2023/05/23 01:42:57;;;;;;;;;33.00;30.00;;;;;16.95;78.10;100370.44;5078665;28;45334;-75
2023/05/23 01:45:25;;;;;;;;;32.50;30.00;;;;;17.10;78.31;100369.56;5078168;28;45350;-73
2023/05/23 01:47:53;;;;;;;;;34.00;29.75;;;;;17.12;78.64;100373.06;5078719;28;45489;-74
2023/05/23 01:50:19;;;;;;;;;32.50;29.75;;;;;17.11;78.07;100373.97;5078217;28;45523;-73
2023/05/23 01:52:46;;;;;;;;;32.75;31.75;;;;;17.10;78.60;100380.09;5078265;28;45364;-74
2023/05/23 01:55:17;;;;;;;;;25.75;24.00;;;;;17.07;77.83;100372.22;5078212;28;45562;-73
2023/05/23 01:57:47;;;;;;;;;33.75;30.75;;;;;17.14;77.80;100371.31;5078292;28;45377;-73
2023/05/23 02:00:14;;;;;;;;;29.25;27.75;;;;;17.12;78.14;100370.44;5078041;27;45967;-73
2023/05/23 02:02:40;;;;;;;;;29.25;26.25;;;;;17.15;77.52;100377.47;5077974;28;45561;-73
2023/05/23 02:05:06;;;;;;;;;28.00;26.75;;;;;17.18;77.71;100372.19;5077923;28;45228;-73
2023/05/23 02:07:31;;;;;;;;;30.00;28.25;;;;;17.17;77.96;100368.69;5078205;28;45493;-72
2023/05/23 02:09:57;;;;;;;;;31.75;28.25;;;;;17.15;77.82;100374.81;5077850;28;45590;-74
2023/05/23 02:12:22;;;;;;;;;26.00;25.50;;;;;17.14;77.55;100366.03;5078224;28;45971;-74
2023/05/23 02:14:50;;;;;;;;;25.25;24.25;;;;;17.19;77.49;100384.50;5078290;28;45585;-74
2023/05/23 02:17:17;;;;;;;;;29.50;27.25;;;;;17.17;77.76;100368.69;5077916;28;45470;-73
2023/05/23 02:19:42;;;;;;;;;25.00;24.00;;;;;17.09;77.47;100366.03;5077174;28;46217;-73
2023/05/23 02:22:08;;;;;;;;;27.50;26.00;;;;;17.20;77.02;100379.22;5077732;28;45288;-73
2023/05/23 02:24:33;;;;;;;;;27.75;25.00;;;;;16.98;77.22;100327.31;5077989;28;45376;-73
2023/05/23 02:26:59;;;;;;;;;28.00;27.25;;;;;17.23;77.49;100379.25;5077916;28;45529;-73
2023/05/23 02:29:24;;;;;;;;;26.00;25.00;;;;;17.24;77.69;100378.34;5077621;28;45717;-74
2023/05/23 02:31:50;;;;;;;;;29.50;27.75;;;;;17.19;77.97;100374.84;5077901;28;45474;-74
2023/05/23 02:34:16;;;;;;;;;27.75;26.25;;;;;17.21;78.15;100381.00;5077586;28;45456;-75
2023/05/23 02:36:41;;;;;;;;;29.75;27.75;;;;;17.18;78.71;100388.91;5077003;28;45240;-74
2023/05/23 02:39:06;;;;;;;;;27.50;26.00;;;;;17.18;78.74;100386.25;5077371;28;45933;-73
2023/05/23 02:41:32;;;;;;;;;27.50;25.50;;;;;17.03;78.95;100362.50;5077533;28;45461;-74
2023/05/23 02:43:58;;;;;;;;;27.50;27.00;;;;;17.23;78.77;100381.88;5077656;28;45502;-73
2023/05/23 02:46:23;;;;;;;;;28.00;25.75;;;;;17.23;78.99;100386.25;5078151;28;45236;-74
2023/05/23 02:48:49;;;;;;;;;26.50;25.25;;;;;16.56;79.53;100281.53;5077232;27;45255;-73
2023/05/23 02:51:16;;;;;;;;;25.00;24.00;;;;;17.18;79.40;100385.41;5077412;28;45749;-75
2023/05/23 02:53:42;;;;;;;;;27.00;26.50;;;;;17.16;79.64;100382.75;5059205;28;45491;-76
2023/05/23 02:56:08;;;;;;;;;25.25;23.75;;;;;17.20;79.14;100386.28;5077478;28;45298;-75
2023/05/23 02:58:34;;;;;;;;;27.50;25.75;;;;;17.14;79.30;100379.22;5077128;28;45418;-74
2023/05/23 03:01:01;;;;;;;;;25.00;24.00;;;;;17.19;79.54;100382.75;5058795;28;45508;-75
2023/05/23 03:03:27;;;;;;;;;25.00;24.25;;;;;17.24;79.53;100394.19;5077114;28;45528;-74
2023/05/23 03:05:53;;;;;;;;;26.25;25.00;;;;;17.17;79.50;100381.88;5077699;28;45377;-74
2023/05/23 03:08:19;;;;;;;;;30.00;27.00;;;;;17.02;79.06;100369.53;5058904;28;45519;-73
2023/05/23 03:10:45;;;;;;;;;24.50;22.50;;;;;16.92;79.76;100351.06;5077125;28;45260;-73
2023/05/23 03:13:10;;;;;;;;;26.00;23.25;;;;;17.17;79.86;100386.25;5077269;28;45505;-73
2023/05/23 03:15:36;;;;;;;;;24.00;23.00;;;;;17.20;79.97;100386.28;5058906;28;45388;-73
2023/05/23 03:18:01;;;;;;;;;23.25;22.25;;;;;17.21;79.60;100383.66;5076933;28;45604;-74
2023/05/23 03:20:27;;;;;;;;;23.25;22.75;;;;;17.11;79.55;100368.69;5077152;28;45346;-74
2023/05/23 03:22:52;;;;;;;;;23.75;22.75;;;;;17.12;79.77;100373.06;5059094;28;45491;-73
2023/05/23 03:25:18;;;;;;;;;25.75;25.00;;;;;17.03;79.40;100367.78;5077178;28;45425;-73
2023/05/23 03:27:43;;;;;;;;;21.25;20.25;;;;;17.14;79.82;100379.22;5076778;28;45975;-73
2023/05/23 03:30:09;;;;;;;;;24.00;23.00;;;;;17.17;79.93;100379.25;5076778;28;45251;-73
2023/05/23 03:32:35;;;;;;;;;21.00;20.25;;;;;17.20;79.62;100373.06;5076809;28;45308;-73
2023/05/23 03:35:00;;;;;;;;;21.50;21.25;;;;;17.20;79.26;100378.34;5077092;28;45260;-74
2023/05/23 03:37:26;;;;;;;;;22.25;20.50;;;;;17.18;79.81;100380.13;5077018;28;45495;-73
2023/05/23 03:39:51;;;;;;;;;22.25;22.00;;;;;17.17;79.80;100379.25;5076954;28;45461;-74
2023/05/23 03:42:17;;;;;;;;;22.25;21.25;;;;;17.12;79.93;100370.44;5076878;28;45458;-73
2023/05/23 03:44:42;;;;;;;;;23.25;22.25;;;;;17.14;79.94;100378.34;5076884;28;45393;-73
2023/05/23 03:47:08;;;;;;;;;24.25;23.75;;;;;17.10;80.15;100377.47;5076559;28;45496;-75
2023/05/23 03:49:34;;;;;;;;;21.75;19.75;;;;;17.10;79.87;100373.06;5079399;28;45323;-74
2023/05/23 03:51:59;;;;;;;;;22.00;21.25;;;;;17.14;79.67;100363.38;5080141;28;45478;-74
2023/05/23 03:54:25;;;;;;;;;25.25;23.50;;;;;17.09;79.96;100362.53;5080575;28;45568;-73
2023/05/23 03:56:50;;;;;;;;;20.50;20.50;;;;;17.07;79.79;100362.53;5061566;28;46929;-73
2023/05/23 03:59:17;;;;;;;;;24.50;23.50;;;;;17.07;79.81;100366.94;5079921;28;45487;-73
2023/05/23 04:01:43;;;;;;;;;24.25;22.25;;;;;16.72;79.78;100306.19;5080081;28;45414;-73
2023/05/23 04:04:08;;;;;;;;;25.00;22.75;;;;;17.06;80.32;100368.66;5080010;28;45478;-73
2023/05/23 04:06:34;;;;;;;;;24.50;23.00;;;;;16.92;80.22;100351.94;5079845;28;45667;-73
2023/05/23 04:09:01;;;;;;;;;25.50;22.75;;;;;16.98;79.84;100388.91;5080043;28;45493;-73
2023/05/23 04:11:26;;;;;;;;;24.75;23.50;;;;;16.97;80.34;100370.41;5080303;28;45296;-73
2023/05/23 04:13:52;;;;;;;;;20.25;19.50;;;;;16.99;80.51;100368.66;5079964;28;45352;-73
2023/05/23 04:16:18;;;;;;;;;21.75;21.00;;;;;17.01;80.18;100367.81;5079632;27;45479;-73
2023/05/23 04:18:46;;;;;;;;;24.00;23.25;;;;;17.03;79.74;100370.41;5079518;28;45781;-73
2023/05/23 04:21:11;;;;;;;;;22.75;21.00;;;;;16.96;79.83;100358.13;5079787;27;45438;-73
2023/05/23 04:23:37;;;;;;;;;20.50;20.00;;;;;17.04;79.78;100375.69;5079851;28;45442;-74
2023/05/23 04:26:04;;;;;;;;;20.50;19.00;;;;;17.08;80.03;100376.59;5079653;28;46128;-74
2023/05/23 04:28:30;;;;;;;;;22.00;21.00;;;;;16.88;80.34;100343.16;5079863;28;45389;-73
2023/05/23 04:30:57;;;;;;;;;22.00;21.00;;;;;17.11;79.91;100379.25;5079872;28;45525;-73
2023/05/23 04:33:23;;;;;;;;;19.75;19.75;;;;;17.13;79.61;100381.84;5079587;28;45300;-74
2023/05/23 04:35:50;;;;;;;;;20.75;20.00;;;;;17.14;79.41;100376.59;5079199;28;46587;-73
2023/05/23 04:38:16;;;;;;;;;24.25;23.00;;;;;16.99;79.40;100348.44;5079340;28;45490;-73
2023/05/23 04:40:41;;;;;;;;;19.00;18.00;;;;;17.14;79.45;100384.50;5061456;28;45354;-73
2023/05/23 04:43:09;;;;;;;;;25.00;23.75;;;;;17.11;79.80;100379.25;5079559;28;45496;-73
2023/05/23 04:45:35;;;;;;;;;21.50;20.50;;;;;17.08;80.03;100387.16;5079160;28;46344;-73
2023/05/23 04:48:02;;;;;;;;;23.00;19.25;;;;;17.10;79.50;100382.75;5061145;28;45204;-73
2023/05/23 04:50:31;;;;;;;;;19.75;19.75;;;;;16.90;79.25;100343.16;5079544;28;45485;-73
2023/05/23 04:52:57;;;;;;;;;20.25;20.25;;;;;17.13;79.52;100382.75;5079604;28;45399;-73
2023/05/23 04:55:22;;;;;;;;;27.00;23.75;;;;;17.11;79.85;100387.16;5078847;28;45488;-73
2023/05/23 04:57:48;;;;;;;;;24.00;21.75;;;;;17.07;80.02;100378.34;5078018;28;45577;-73
2023/05/23 05:00:14;;;;;;;;;20.25;20.00;;;;;17.01;80.32;100369.53;5077814;28;45383;-72
2023/05/23 05:02:40;;;;;;;;;22.00;21.00;;;;;17.15;80.11;100390.66;5078453;28;45259;-73
2023/05/23 05:05:06;;;;;;;;;22.25;21.00;;;;;17.15;79.51;100386.28;5078029;28;46085;-75
2023/05/23 05:07:34;;;;;;;;;22.25;22.25;;;;;17.15;79.48;100391.56;5078505;28;45448;-73
2023/05/23 05:10:00;;;;;;;;;20.75;20.50;;;;;17.16;79.37;100393.31;5078323;28;45587;-73
2023/05/23 05:12:25;;;;;;;;;21.50;21.00;;;;;17.15;79.96;100388.03;5078238;28;45494;-73
2023/05/23 05:14:51;;;;;;;;;24.50;24.00;;;;;17.12;80.22;100386.25;5077696;28;46018;-74
2023/05/23 05:17:18;;;;;;;;;22.25;20.75;;;;;17.11;80.45;100392.44;5077679;28;45339;-73
2023/05/23 05:19:44;;;;;;;;;27.50;25.25;;;;;17.13;80.64;100392.41;5078113;28;46247;-73
2023/05/23 05:22:10;;;;;;;;;26.25;23.25;;;;;17.12;80.42;100388.03;5078274;28;45275;-73
2023/05/23 05:24:36;;;;;;;;;22.50;22.50;;;;;17.13;80.25;100376.59;5077070;28;46519;-73
2023/05/23 05:27:02;;;;;;;;;22.25;21.50;;;;;17.18;80.43;100383.63;5078490;28;45506;-73
2023/05/23 05:29:27;;;;;;;;;21.00;21.00;;;;;17.19;79.90;100385.41;5078144;28;45711;-72
2023/05/23 05:31:53;;;;;;;;;23.75;22.75;;;;;17.25;79.92;100385.41;5077602;28;45371;-74
2023/05/23 05:34:18;;;;;;;;;24.50;23.75;;;;;17.25;79.80;100382.75;5077412;28;45443;-74
2023/05/23 05:36:47;;;;;;;;;25.00;23.75;;;;;17.30;79.51;100390.66;5066939;28;45449;-74
2023/05/23 05:39:15;;;;;;;;;21.50;20.00;;;;;17.30;79.57;100391.53;5077592;28;45561;-75
2023/05/23 05:41:41;;;;;;;;;20.00;19.00;;;;;17.30;80.00;100388.91;5077516;28;45493;-73
2023/05/23 05:44:07;;;;;;;;;24.00;22.50;;;;;17.21;79.90;100381.00;5076881;28;45876;-73
2023/05/23 05:46:33;;;;;;;;;24.00;22.50;;;;;16.96;79.84;100335.25;5077704;28;45483;-75
2023/05/23 05:48:59;;;;;;;;;24.00;22.75;;;;;17.33;79.90;100395.06;5077455;28;46120;-73
2023/05/23 05:51:24;;;;;;;;;27.25;27.00;;;;;17.34;80.57;100407.41;5077516;28;45513;-74
2023/05/23 05:53:50;;;;;;;;;31.00;28.00;;;;;17.25;80.48;100385.41;5077025;28;45770;-73
2023/05/23 05:56:15;;;;;;;;;22.50;20.75;;;;;17.34;80.34;100399.47;5076980;28;45640;-73
2023/05/23 05:58:41;;;;;;;;;21.75;21.00;;;;;17.36;79.83;100401.22;5077373;28;45478;-73
2023/05/23 06:01:06;;;;;;;;;23.25;22.00;;;;;17.44;79.64;100399.47;5076506;28;45424;-74
2023/05/23 06:03:32;;;;;;;;;24.75;24.00;;;;;17.46;78.70;100396.81;5077105;28;46109;-73
2023/05/23 06:05:58;;;;;;;;;25.50;25.00;;;;;17.44;79.01;100403.88;5077077;28;45484;-73
2023/05/23 06:08:24;;;;;;;;;28.25;26.00;;;;;17.52;79.61;100396.81;5077243;28;45425;-73
2023/05/23 06:10:50;;;;;;;;;31.50;29.75;;;;;17.33;79.62;100352.81;5076670;28;45514;-75
2023/05/23 06:13:16;;;;;;;;;27.75;27.75;;;;;17.60;79.29;100397.69;5075951;28;46228;-74
2023/05/23 06:15:42;;;;;;;;;26.50;25.00;;;;;17.56;79.35;100374.81;5076771;28;45544;-73
2023/05/23 06:18:07;;;;;;;;;28.50;27.00;;;;;17.69;79.25;100397.69;5076703;28;45739;-74
2023/05/23 06:20:33;;;;;;;;;26.50;24.25;;;;;17.72;79.28;100403.84;5077439;28;45369;-74
2023/05/23 06:23:00;;;;;;;;;25.50;23.50;;;;;17.69;78.90;100397.69;5076718;28;45350;-72
2023/05/23 06:25:26;;;;;;;;;25.75;25.00;;;;;17.50;78.73;100369.53;5076841;28;45371;-74
2023/05/23 06:27:51;;;;;;;;;25.50;23.25;;;;;17.63;79.42;100379.22;5076894;28;45318;-73
2023/05/23 06:30:17;;;;;;;;;25.25;24.00;;;;;17.83;78.25;100407.34;5076556;28;45338;-73
2023/05/23 06:32:43;;;;;;;;;24.75;23.50;;;;;17.82;77.68;100400.31;5076472;28;45614;-73
2023/05/23 06:35:09;;;;;;;;;23.00;21.75;;;;;17.77;77.18;100397.69;5076068;28;45578;-72
2023/05/23 06:37:34;;;;;;;;;22.25;22.25;;;;;17.90;77.07;100403.84;5076810;28;45469;-74
2023/05/23 06:40:00;;;;;;;;;22.00;21.75;;;;;17.70;76.86;100365.09;5076833;28;45629;-72
2023/05/23 06:42:26;;;;;;;;;22.75;21.25;;;;;17.98;77.24;100402.06;5076596;28;45573;-75
2023/05/23 06:44:51;;;;;;;;;24.25;23.00;;;;;18.02;77.19;100403.78;5076649;28;45409;-73
2023/05/23 06:47:17;;;;;;;;;23.25;23.00;;;;;17.92;76.92;100380.06;5076513;28;45490;-76
2023/05/23 06:49:42;;;;;;;;;23.50;22.50;;;;;17.82;77.29;100363.31;5076738;28;45325;-73
2023/05/23 06:52:08;;;;;;;;;26.25;25.75;;;;;18.08;77.18;100403.81;5076412;28;46121;-74
2023/05/23 06:54:33;;;;;;;;;24.75;23.00;;;;;17.85;76.92;100352.78;5076432;28;45474;-77
2023/05/23 06:56:59;;;;;;;;;24.75;23.25;;;;;17.83;76.60;100339.56;5076309;28;45520;-74
2023/05/23 06:59:24;;;;;;;;;27.00;22.50;;;;;18.34;76.50;100405.44;5076439;28;45518;-76
2023/05/23 07:01:50;;;;;;;;;25.75;23.25;;;;;18.32;75.86;100394.00;5076423;28;46018;-75
2023/05/23 07:04:15;;;;;;;;;28.25;27.75;;;;;18.10;75.26;100356.19;5076419;28;45437;-81
2023/05/23 07:06:41;;;;;;;;;30.25;28.00;;;;;18.47;75.05;100419.53;5075798;28;45537;-80
2023/05/23 07:09:10;;;;;;;;;28.00;25.00;;;;;18.38;74.10;100401.94;5076723;27;45553;-80
2023/05/23 07:11:38;;;;;;;;;23.75;22.75;;;;;18.46;74.28;100408.06;5073021;28;45381;-77
2023/05/23 07:14:04;;;;;;;;;26.25;23.75;;;;;18.55;74.13;100409.78;5076084;28;45515;-77
2023/05/23 07:16:30;;;;;;;;;21.75;21.25;;;;;18.33;73.84;100364.03;5073543;28;45238;-80
2023/05/23 07:18:55;;;;;;;;;29.75;22.75;;;;;18.60;73.45;100412.38;5076054;28;45620;-75
2023/05/23 07:21:21;;;;;;;;;27.50;24.00;;;;;18.51;73.39;100413.31;5075890;27;45537;-76
2023/05/23 07:23:46;;;;;;;;;26.00;26.00;;;;;18.13;73.98;100360.63;5077648;28;46269;-78
2023/05/23 07:26:12;;;;;;;;;25.00;23.25;;;;;18.49;74.04;100415.97;5079721;28;45480;-74
2023/05/23 07:28:37;;;;;;;;;23.25;23.00;;;;;18.49;74.43;100415.97;5080201;28;45517;-74
2023/05/23 07:31:03;;;;;;;;;23.25;23.00;;;;;18.43;74.42;100416.00;5079582;28;46019;-74
2023/05/23 07:33:29;;;;;;;;;22.75;21.75;;;;;18.42;74.85;100421.28;5061157;28;45516;-74
2023/05/23 07:35:54;;;;;;;;;26.50;25.00;;;;;17.67;74.78;100290.28;5061135;27;45406;-74
2023/05/23 07:38:20;;;;;;;;;23.00;21.25;;;;;18.43;74.68;100415.13;5080431;28;45285;-74
2023/05/23 07:40:45;;;;;;;;;27.25;26.25;;;;;18.43;74.49;100420.41;5079950;28;45536;-75
2023/05/23 07:43:11;;;;;;;;;29.00;25.00;;;;;18.39;74.68;100421.31;5080059;28;45361;-76
2023/05/23 07:45:36;;;;;;;;;28.00;27.50;;;;;17.81;74.83;100335.13;5080025;28;45572;-78
2023/05/23 07:48:02;;;;;;;;;28.75;26.75;;;;;18.32;75.01;100419.56;5079707;28;45499;-76
2023/05/23 07:50:27;;;;;;;;;35.25;31.50;;;;;18.29;75.64;100413.41;5079250;28;45395;-77
2023/05/23 07:52:53;;;;;;;;;27.50;26.50;;;;;17.41;76.21;100283.28;5079227;28;45492;-75
2023/05/23 07:55:20;;;;;;;;;29.50;29.25;;;;;18.28;76.29;100422.25;5079414;28;45523;-75
2023/05/23 07:57:45;;;;;;;;;31.75;30.50;;;;;18.25;76.00;100403.72;5077194;27;45253;-75
2023/05/23 08:00:11;;;;;;;;;35.25;32.00;;;;;18.11;75.83;100365.03;5079648;28;45599;-76
2023/05/23 08:02:37;;;;;;;;;31.00;30.25;;;;;18.27;75.66;100390.50;5079465;27;45502;-77
2023/05/23 08:05:02;;;;;;;;;30.75;29.50;;;;;18.34;75.48;100410.75;5079064;28;45596;-78
2023/05/23 08:07:28;;;;;;;;;30.25;27.75;;;;;18.53;75.53;100434.50;5079176;27;45639;-75
2023/05/23 08:09:53;;;;;;;;;29.50;28.75;;;;;18.58;75.56;100430.03;5079260;27;46141;-75
2023/05/23 08:12:19;;;;;;;;;29.50;29.00;;;;;18.62;75.50;100437.06;5079682;28;45380;-75
2023/05/23 08:14:45;;;;;;;;;30.75;27.25;;;;;18.66;75.30;100436.16;5079606;27;45566;-76
2023/05/23 08:17:12;;;;;;;;;30.75;28.75;;;;;18.66;74.79;100436.16;5079733;28;45450;-75
2023/05/23 08:19:37;;;;;;;;;31.25;27.25;;;;;18.52;75.61;100422.13;5079519;28;45376;-75
2023/05/23 08:22:03;;;;;;;;;33.00;29.25;;;;;18.61;75.93;100438.84;5079116;27;45357;-76
2023/05/23 08:24:29;;;;;;;;;31.75;28.25;;;;;18.60;75.43;100425.63;5079455;27;45236;-75
2023/05/23 08:26:55;;;;;;;;;32.75;30.50;;;;;18.70;75.32;100440.56;5079614;28;45255;-76
2023/05/23 08:29:21;;;;;;;;;27.50;26.50;;;;;18.72;75.43;100433.53;5078977;28;46119;-75
2023/05/23 08:31:46;;;;;;;;;32.75;28.50;;;;;18.74;75.10;100431.75;5078905;28;45312;-75
2023/05/23 08:34:13;;;;;;;;;33.00;29.00;;;;;18.55;75.16;100388.63;5079004;28;45258;-75
2023/05/23 08:36:39;;;;;;;;;29.00;26.75;;;;;18.84;74.89;100437.88;5078865;28;45337;-76
2023/05/23 08:39:04;;;;;;;;;32.75;28.75;;;;;18.73;74.86;100419.38;5078559;27;46104;-76
2023/05/23 08:41:30;;;;;;;;;31.00;29.75;;;;;18.82;74.22;100431.72;5078713;28;45256;-76
2023/05/23 08:43:56;;;;;;;;;30.75;28.75;;;;;18.87;74.15;100436.09;5078928;27;45459;-75
2023/05/23 08:46:22;;;;;;;;;31.50;26.00;;;;;18.86;74.12;100438.75;5079315;28;45475;-76
2023/05/23 08:48:53;;;;;;;;;34.50;31.25;;;;;18.80;74.39;100431.75;5078499;28;45375;-75
2023/05/23 08:51:22;;;;;;;;;37.00;32.25;;;;;18.87;74.30;100433.44;5078882;28;45420;-76
2023/05/23 08:53:49;;;;;;;;;34.25;31.25;;;;;18.88;74.16;100435.22;5079047;28;45474;-76
2023/05/23 08:56:15;;;;;;;;;26.75;26.00;;;;;18.44;74.02;100353.41;5078925;28;45244;-76
2023/05/23 08:58:42;;;;;;;;;32.25;29.25;;;;;18.85;74.29;100435.22;5078981;28;46229;-76
2023/05/23 09:01:09;;;;;;;;;33.75;30.00;;;;;18.84;74.14;100433.47;5078587;28;45560;-75
2023/05/23 09:03:38;;;;;;;;;31.00;30.50;;;;;18.84;74.36;100428.19;5078647;28;45477;-76
2023/05/23 09:06:08;;;;;;;;;32.50;32.00;;;;;18.78;74.45;100419.34;5078902;27;45426;-75
2023/05/23 09:08:34;;;;;;;;;29.50;29.25;;;;;18.90;74.29;100450.19;5078307;28;45421;-76
2023/05/23 09:11:01;;;;;;;;;33.75;31.75;;;;;18.77;74.43;100433.47;5078319;28;45588;-75
2023/05/23 09:13:31;;;;;;;;;34.25;30.25;;;;;18.55;74.79;100404.50;5078441;28;45453;-76
2023/05/23 09:16:03;;;;;;;;;28.75;26.00;;;;;18.73;74.80;100451.13;5078080;27;45287;-76
2023/05/23 09:18:46;;;;;;;;;37.50;32.75;;;;;18.78;74.83;100454.66;5077924;27;46609;-76
2023/05/23 09:21:12;;;;;;;;;38.25;33.75;;;;;18.81;74.32;100456.44;5078255;28;45263;-76
2023/05/23 09:23:40;;;;;;;;;35.50;31.00;;;;;18.70;74.63;100451.13;5078327;28;45486;-75
2023/05/23 09:26:09;;;;;;;;;36.50;33.25;;;;;18.39;75.32;100426.59;5078768;28;45392;-75
2023/05/23 09:28:36;;;;;;;;;33.00;31.75;;;;;18.52;75.72;100438.00;5078027;27;46130;-76
2023/05/23 09:31:07;;;;;;;;;31.00;28.75;;;;;18.60;75.03;100445.03;5078040;28;45518;-75
2023/05/23 09:33:38;;;;;;;;;37.50;33.75;;;;;18.54;75.21;100428.28;5077979;28;45458;-76
2023/05/23 09:36:06;;;;;;;;;32.75;29.50;;;;;18.71;74.88;100458.19;5078179;28;45493;-76
2023/05/23 09:38:36;;;;;;;;;37.75;34.50;;;;;18.66;74.97;100457.34;5077899;28;45963;-76
2023/05/23 09:41:02;;;;;;;;;29.25;27.50;;;;;18.11;74.51;100341.25;5077661;28;45319;-76
2023/05/23 09:43:28;;;;;;;;;33.25;29.00;;;;;18.85;74.71;100450.22;5077741;27;45497;-76
2023/05/23 09:45:54;;;;;;;;;30.50;28.25;;;;;18.93;74.76;100458.13;5077668;28;45371;-75
2023/05/23 09:48:28;;;;;;;;;38.00;35.00;;;;;19.06;74.82;100459.81;5077431;28;45425;-75
2023/05/23 09:50:53;;;;;;;;;30.50;28.50;;;;;18.98;74.00;100425.47;5077712;28;45422;-75
2023/05/23 09:53:21;;;;;;;;;33.25;32.50;;;;;19.15;73.72;100446.50;5077479;28;45434;-75
2023/05/23 09:55:53;;;;;;;;;31.75;28.75;;;;;19.12;72.93;100413.88;5078106;27;45452;-75
2023/05/23 09:58:20;;;;;;;;;30.75;28.75;;;;;19.44;73.30;100456.91;5077244;28;45994;-76
2023/05/23 10:00:48;;;;;;;;;34.75;31.25;;;;;19.55;73.06;100459.44;5077840;28;45224;-75
2023/05/23 10:03:16;;;;;;;;;31.50;28.50;;;;;19.62;72.23;100453.22;5077973;28;45572;-75
2023/05/23 10:05:55;;;;;;;;;32.75;29.75;;;;;19.54;71.91;100457.69;5077757;28;45552;-76
2023/05/23 10:08:26;;;;;;;;;34.00;29.75;;;;;19.38;72.31;100408.41;5077240;28;45408;-76
2023/05/23 10:11:06;;;;;;;;;26.00;25.75;;;;;19.79;72.11;100445.13;5058720;28;45325;-76
2023/05/23 10:13:33;;;;;;;;;29.75;26.75;;;;;19.77;71.50;100411.59;5059174;28;45320;-75
2023/05/23 10:16:11;;;;;;;;;28.50;27.25;;;;;20.15;70.64;100450.06;5077635;28;45474;-75
2023/05/23 10:18:44;;;;;;;;;24.75;24.00;;;;;20.20;69.90;100448.25;5077304;27;46282;-75
2023/05/23 10:21:19;;;;;;;;;26.75;25.00;;;;;20.23;70.18;100437.59;5077498;28;45390;-76
2023/05/23 10:23:47;;;;;;;;;29.00;26.25;;;;;20.25;69.37;100407.53;5077651;28;45327;-76
2023/05/23 10:26:13;;;;;;;;;24.75;24.50;;;;;20.49;69.55;100412.53;5077556;27;45595;-76
2023/05/23 10:28:40;;;;;;;;;26.25;25.00;;;;;20.78;68.63;100439.59;5076891;28;45496;-76
2023/05/23 10:31:06;;;;;;;;;27.67;22.33;;;;;20.49;68.34;100401.91;5077163;28;45188;-75
2023/05/23 10:33:39;;;;;;;;;32.50;27.50;;;;;20.66;68.05;100415.88;5077027;28;45489;-76
2023/05/23 10:36:18;;;;;;;;;26.00;21.50;;;;;20.75;68.00;100437.00;5077478;28;45424;-76
2023/05/23 10:39:01;;;;;;;;;26.75;23.75;;;;;20.66;68.05;100434.47;5077150;28;46235;-76
2023/05/23 10:41:35;;;;;;;;;23.75;23.00;;;;;20.68;68.13;100439.75;5077103;28;45515;-76
2023/05/23 10:44:28;;;;;;;;;21.75;21.00;;;;;20.68;68.19;100434.44;5077047;28;45170;-75
2023/05/23 10:47:00;;;;;;;;;36.75;32.50;;;;;20.56;67.50;100431.00;5053904;28;45488;-76
2023/05/23 10:49:50;;;;;;;;;25.50;24.25;;;;;19.61;68.22;100295.09;5076712;28;46097;-76
2023/05/23 10:52:16;;;;;;;;;26.25;24.00;;;;;20.23;68.28;100413.72;5077331;27;45581;-76
2023/05/23 10:54:50;;;;;;;;;25.75;24.75;;;;;20.20;67.98;100419.09;5076533;28;45496;-76
2023/05/23 10:57:20;;;;;;;;;23.25;19.75;;;;;20.25;68.31;100433.16;5076562;28;45541;-76
2023/05/23 10:59:52;;;;;;;;;24.67;22.67;;;;;19.78;68.79;100384.22;5076639;28;46211;-75
2023/05/23 11:02:28;;;;;;;;;23.33;22.67;;;;;20.07;69.18;100434.25;5077117;27;45493;-75
2023/05/23 11:05:21;;;;;;;;;29.50;27.00;;;;;20.06;69.50;100436.03;5076861;28;45476;-75
2023/05/23 11:08:05;;;;;;;;;23.00;20.50;;;;;20.03;68.94;100427.22;5077101;28;45505;-76
2023/05/23 11:10:30;;;;;;;;;25.50;23.25;;;;;19.79;69.19;100376.22;5076228;28;45535;-75